createdAt,value
2023-02-09T00:00:29.236Z,100047.34
2023-02-09T00:03:16.881Z,100061.16
2023-02-09T00:06:06.885Z,100056.00
2023-02-09T00:08:56.472Z,100053.44
2023-02-09T00:12:01.629Z,100047.44
2023-02-09T00:14:50.508Z,100039.69
2023-02-09T00:17:38.770Z,100042.31
2023-02-09T00:20:26.317Z,100041.47
2023-02-09T00:23:13.978Z,100038.03
2023-02-09T00:26:02.961Z,100038.91
2023-02-09T00:28:50.466Z,100038.06
2023-02-09T00:31:40.097Z,100037.22
2023-02-09T00:34:27.961Z,100032.06
2023-02-09T00:37:15.509Z,100039.00
2023-02-09T00:40:03.412Z,100030.38
2023-02-09T00:42:51.577Z,100027.81
2023-02-09T00:45:39.194Z,100019.19
2023-02-09T00:48:28.154Z,100013.19
2023-02-09T00:51:16.305Z,100013.19
2023-02-09T00:54:04.856Z,100028.72
2023-02-09T00:56:52.995Z,100023.56
2023-02-09T00:59:42.623Z,100027.03
2023-02-09T01:02:30.675Z,100015.84
2023-02-09T01:05:20.292Z,100021.91
2023-02-09T01:08:07.990Z,100011.59
2023-02-09T01:10:55.686Z,100021.06
2023-02-09T01:13:44.631Z,100017.66
2023-02-09T01:16:32.936Z,100022.84
2023-02-09T01:19:20.906Z,100034.91
2023-02-09T01:22:10.231Z,100029.75
2023-02-09T01:24:57.676Z,100037.53
2023-02-09T01:27:45.212Z,100029.78
2023-02-09T01:30:32.833Z,100023.78
2023-02-09T01:33:20.481Z,100016.88
2023-02-09T01:36:09.752Z,100018.63
2023-02-09T01:39:01.984Z,100010.88
2023-02-09T01:41:49.547Z,100009.16
2023-02-09T01:45:29.618Z,100004.03
2023-02-09T01:48:20.112Z,100007.47
2023-02-09T01:51:08.305Z,100000.59
2023-02-09T01:53:58.287Z,99994.56
2023-02-09T01:56:53.040Z,99995.44
2023-02-09T01:59:44.523Z,99998.03
2023-02-09T02:02:32.769Z,99995.44
2023-02-09T02:05:22.221Z,99984.31
2023-02-09T02:08:17.961Z,99987.72
2023-02-09T02:11:09.718Z,99989.50
2023-02-09T02:13:58.293Z,99983.47
2023-02-09T02:16:57.953Z,99985.19
2023-02-09T02:20:54.370Z,99978.31
2023-02-09T02:24:01.792Z,99981.75
2023-02-09T02:26:57.810Z,99978.31
2023-02-09T02:30:22.232Z,99978.34
2023-02-09T02:33:27.973Z,99977.50
2023-02-09T02:36:29.301Z,99972.34
2023-02-09T02:39:27.528Z,99964.59
2023-02-09T02:42:41.109Z,99962.84
2023-02-09T02:45:41.260Z,99967.16
2023-02-09T02:48:41.099Z,99963.72
2023-02-09T02:51:34.394Z,99958.53
2023-02-09T02:54:29.232Z,99948.22
2023-02-09T02:57:22.561Z,99943.94
2023-02-09T03:00:15.725Z,99961.13
2023-02-09T03:03:07.609Z,99972.34
2023-02-09T03:05:58.113Z,99974.06
2023-02-09T03:08:51.503Z,99975.78
2023-02-09T03:11:45.345Z,99984.38
2023-02-09T03:14:48.397Z,99969.75
2023-02-09T03:17:47.808Z,99965.44
2023-02-09T03:20:48.076Z,99974.06
2023-02-09T03:23:46.056Z,99968.91
2023-02-09T03:26:43.111Z,99968.91
2023-02-09T03:29:35.023Z,99965.50
2023-02-09T03:32:24.758Z,99956.91
2023-02-09T03:35:18.357Z,99962.94
2023-02-09T03:38:07.404Z,99962.06
2023-02-09T03:40:59.768Z,99955.19
2023-02-09T03:44:05.369Z,99961.25
2023-02-09T03:46:52.838Z,99958.66
2023-02-09T03:49:43.402Z,99956.94
2023-02-09T03:52:31.661Z,99960.38
2023-02-09T03:55:19.900Z,99953.53
2023-02-09T03:58:09.176Z,99960.38
2023-02-09T04:01:02.680Z,99960.41
2023-02-09T04:03:50.608Z,99958.69
2023-02-09T04:06:39.077Z,99953.53
2023-02-09T04:09:28.749Z,99951.81
2023-02-09T04:12:16.547Z,99960.41
2023-02-09T04:15:06.506Z,99954.41
2023-02-09T04:17:54.676Z,99965.56
2023-02-09T04:20:42.891Z,99965.56
2023-02-09T04:23:30.779Z,99971.59
2023-02-09T04:26:18.863Z,99980.19
2023-02-09T04:29:06.702Z,99980.19
2023-02-09T04:31:56.021Z,99976.78
2023-02-09T04:34:43.816Z,99966.47
2023-02-09T04:37:31.405Z,99963.91
2023-02-09T04:40:19.320Z,99969.91
2023-02-09T04:43:06.684Z,99969.91
2023-02-09T04:45:54.683Z,99967.34
2023-02-09T04:48:45.692Z,99971.66
2023-02-09T04:51:33.320Z,99972.50
2023-02-09T04:54:20.949Z,99977.66
2023-02-09T04:57:26.484Z,99972.50
2023-02-09T05:00:18.902Z,99970.78
2023-02-09T05:03:06.507Z,99967.34
2023-02-09T05:05:58.292Z,99965.63
2023-02-09T05:08:45.897Z,99967.34
2023-02-09T05:11:33.555Z,99957.88
2023-02-09T05:14:21.371Z,99969.06
2023-02-09T05:17:09.269Z,99973.34
2023-02-09T05:19:59.258Z,99979.38
2023-02-09T05:22:50.088Z,99980.25
2023-02-09T05:25:41.131Z,99977.66
2023-02-09T05:28:29.098Z,99973.34
2023-02-09T05:31:17.970Z,99962.19
2023-02-09T05:34:05.833Z,99969.03
2023-02-09T05:36:55.957Z,99967.34
2023-02-09T05:39:45.101Z,99966.47
2023-02-09T05:42:33.138Z,99958.72
2023-02-09T05:45:23.836Z,99962.16
2023-02-09T05:48:12.112Z,99957.00
2023-02-09T05:51:02.249Z,99957.00
2023-02-09T05:53:50.340Z,99957.88
2023-02-09T05:56:40.749Z,99957.00
2023-02-09T05:59:31.799Z,99957.00
2023-02-09T06:02:19.463Z,99957.00
2023-02-09T06:05:08.054Z,99951.84
2023-02-09T06:07:56.553Z,99954.41
2023-02-09T06:10:45.021Z,99951.00
2023-02-09T06:13:34.806Z,99954.41
2023-02-09T06:16:23.083Z,99955.28
2023-02-09T06:19:14.958Z,99958.72
2023-02-09T06:22:05.539Z,99958.69
2023-02-09T06:24:53.363Z,99962.13
2023-02-09T06:27:41.433Z,99956.13
2023-02-09T06:30:32.650Z,99958.69
2023-02-09T06:33:21.796Z,99962.97
2023-02-09T06:36:11.373Z,99966.44
2023-02-09T06:38:59.521Z,99975.88
2023-02-09T06:41:47.412Z,99974.16
2023-02-09T06:44:35.312Z,99981.00
2023-02-09T06:47:24.548Z,99981.00
2023-02-09T06:50:15.249Z,99987.03
2023-02-09T06:53:03.801Z,99993.03
2023-02-09T06:55:51.227Z,99984.44
2023-02-09T06:58:40.322Z,99995.59
2023-02-09T07:01:28.020Z,99996.44
2023-02-09T07:04:16.991Z,100000.75
2023-02-09T07:07:04.417Z,99998.16
2023-02-09T07:09:52.064Z,99999.00
2023-02-09T07:12:40.773Z,99998.16
2023-02-09T07:15:31.657Z,100006.72
2023-02-09T07:18:19.265Z,99998.16
2023-02-09T07:21:10.976Z,99997.28
2023-02-09T07:24:00.794Z,100003.31
2023-02-09T07:26:48.641Z,100009.34
2023-02-09T07:29:36.951Z,100012.78
2023-02-09T07:32:25.458Z,100005.91
2023-02-09T07:35:13.129Z,100005.91
2023-02-09T07:38:02.489Z,100005.94
2023-02-09T07:40:50.540Z,100013.66
2023-02-09T07:43:38.304Z,100004.22
2023-02-09T07:46:26.521Z,100025.72
2023-02-09T07:49:17.348Z,100022.31
2023-02-09T07:52:05.538Z,100026.63
2023-02-09T07:54:54.349Z,100023.16
2023-02-09T07:57:42.088Z,100032.63
2023-02-09T08:00:29.610Z,100030.91
2023-02-09T08:03:20.788Z,100030.03
2023-02-09T08:06:19.686Z,100030.91
2023-02-09T08:09:09.538Z,100030.91
2023-02-09T08:12:04.008Z,100026.59
2023-02-09T08:14:52.070Z,100020.53
2023-02-09T08:17:39.782Z,100018.69
2023-02-09T08:20:31.794Z,100027.19
2023-02-09T08:23:26.558Z,100027.09
2023-02-09T08:26:15.976Z,100023.63
2023-02-09T08:29:05.354Z,100032.94
2023-02-09T08:31:53.154Z,100025.00
2023-02-09T08:34:40.892Z,100023.88
2023-02-09T08:37:29.194Z,100022.78
2023-02-09T08:40:17.563Z,100033.75
2023-02-09T08:43:06.027Z,100020.84
2023-02-09T08:45:55.347Z,100025.28
2023-02-09T08:48:46.575Z,100012.25
2023-02-09T08:51:34.492Z,100013.78
2023-02-09T08:54:22.080Z,100008.22
2023-02-09T08:57:10.055Z,99998.28
2023-02-09T08:59:57.675Z,100002.34
2023-02-09T09:02:46.556Z,99992.56
2023-02-09T09:05:36.217Z,99982.03
2023-02-09T09:08:24.011Z,99989.53
2023-02-09T09:11:14.672Z,99981.41
2023-02-09T09:14:02.574Z,99980.69
2023-02-09T09:16:50.421Z,99975.31
2023-02-09T09:19:39.714Z,99971.31
2023-02-09T09:22:27.751Z,99965.78
2023-02-09T09:25:15.401Z,99955.00
2023-02-09T09:28:03.011Z,99953.94
2023-02-09T09:30:50.685Z,99956.22
2023-02-09T09:33:39.581Z,99951.34
2023-02-09T09:36:28.934Z,99948.31
2023-02-09T09:39:17.230Z,99950.94
2023-02-09T09:42:06.261Z,99949.97
2023-02-09T09:44:57.211Z,99940.25
2023-02-09T09:47:48.686Z,99937.44
2023-02-09T09:50:43.406Z,99937.84
2023-02-09T09:53:35.882Z,99939.25
2023-02-09T09:56:26.074Z,99944.25
2023-02-09T09:59:20.438Z,99942.31
2023-02-09T10:02:23.557Z,99947.34
2023-02-09T10:05:21.601Z,99949.13
2023-02-09T10:08:22.038Z,99946.78
2023-02-09T10:11:14.953Z,99953.47
2023-02-09T10:14:02.719Z,99957.88
2023-02-09T10:16:50.749Z,99955.06
2023-02-09T10:19:39.215Z,99948.75
2023-02-09T10:22:27.173Z,99949.88
2023-02-09T10:25:49.354Z,99957.97
2023-02-09T10:28:43.468Z,99959.34
2023-02-09T10:31:36.629Z,99957.06
2023-02-09T10:34:33.581Z,99949.00
2023-02-09T10:37:34.444Z,99945.88
2023-02-09T10:40:30.115Z,99946.69
2023-02-09T10:43:26.987Z,99937.94
2023-02-09T10:46:21.547Z,99932.44
2023-02-09T10:49:30.514Z,99933.22
2023-02-09T10:52:21.687Z,99927.78
2023-02-09T10:55:22.718Z,99931.06
2023-02-09T10:58:28.435Z,99934.19
2023-02-09T11:01:24.650Z,99926.25
2023-02-09T11:04:22.750Z,99922.44
2023-02-09T11:07:14.204Z,99910.47
2023-02-09T11:10:05.264Z,99915.28
2023-02-09T11:12:52.867Z,99914.88
2023-02-09T11:15:54.610Z,99910.56
2023-02-09T11:18:53.156Z,99911.34
2023-02-09T11:22:03.611Z,99908.44
2023-02-09T11:25:13.574Z,99896.53
2023-02-09T11:28:19.630Z,99903.03
2023-02-09T11:31:30.371Z,99909.25
2023-02-09T11:34:48.411Z,99913.69
2023-02-09T11:37:47.646Z,99908.78
2023-02-09T11:40:42.863Z,99907.66
2023-02-09T11:43:40.430Z,99896.81
2023-02-09T11:46:34.643Z,99881.31
2023-02-09T11:49:28.319Z,99882.94
2023-02-09T11:52:21.647Z,99887.53
2023-02-09T11:55:27.556Z,99871.75
2023-02-09T11:58:41.825Z,99868.41
2023-02-09T12:01:42.286Z,99879.78
2023-02-09T12:04:45.649Z,99876.25
2023-02-09T12:07:42.885Z,99862.56
2023-02-09T12:10:39.902Z,99855.72
2023-02-09T12:13:41.469Z,99854.09
2023-02-09T12:16:38.862Z,99849.91
2023-02-09T12:19:36.260Z,99843.09
2023-02-09T12:22:50.736Z,99831.88
2023-02-09T12:25:51.971Z,99820.63
2023-02-09T12:28:44.603Z,99806.97
2023-02-09T12:32:11.414Z,99812.38
2023-02-09T12:35:27.665Z,99805.16
2023-02-09T12:38:19.422Z,99795.88
2023-02-09T12:41:09.633Z,99800.94
2023-02-09T12:44:38.684Z,99806.34
2023-02-09T12:47:58.318Z,99798.44
2023-02-09T12:50:54.810Z,99803.66
2023-02-09T12:53:47.854Z,99788.25
2023-02-09T12:56:35.594Z,99781.13
2023-02-09T12:59:26.809Z,99779.78
2023-02-09T13:02:23.988Z,99790.78
2023-02-09T13:05:16.231Z,99791.69
2023-02-09T13:08:17.421Z,99790.28
2023-02-09T13:11:24.209Z,99792.03
2023-02-09T13:14:16.279Z,99783.19
2023-02-09T13:17:37.066Z,99780.78
2023-02-09T13:21:03.123Z,99783.16
2023-02-09T13:24:03.040Z,99770.97
2023-02-09T13:26:53.464Z,99767.66
2023-02-09T13:29:50.597Z,99766.47
2023-02-09T13:32:51.580Z,99778.84
2023-02-09T13:36:07.134Z,99763.63
2023-02-09T13:39:00.415Z,99760.22
2023-02-09T13:41:49.937Z,99770.63
2023-02-09T13:44:37.772Z,99771.56
2023-02-09T13:47:28.067Z,99783.28
2023-02-09T13:50:18.959Z,99797.97
2023-02-09T13:53:11.400Z,99814.34
2023-02-09T13:56:02.353Z,99805.97
2023-02-09T13:58:50.498Z,99811.88
2023-02-09T14:01:38.915Z,99805.41
2023-02-09T14:04:34.329Z,99825.69
2023-02-09T14:07:26.983Z,99814.09
2023-02-09T14:10:18.323Z,99824.44
2023-02-09T14:13:19.525Z,99830.81
2023-02-09T14:16:08.680Z,99825.78
2023-02-09T14:18:58.751Z,99829.94
2023-02-09T14:21:47.225Z,99831.50
2023-02-09T14:24:44.432Z,99828.44
2023-02-09T14:27:40.104Z,99826.63
2023-02-09T14:30:32.749Z,99828.75
2023-02-09T14:33:25.222Z,99839.84
2023-02-09T14:36:25.493Z,99841.78
2023-02-09T14:39:16.863Z,99840.84
2023-02-09T14:42:20.717Z,99835.00
2023-02-09T14:45:39.461Z,99827.47
2023-02-09T14:48:29.437Z,99832.22
2023-02-09T14:51:19.194Z,99829.31
2023-02-09T14:54:25.148Z,99825.47
2023-02-09T14:57:14.495Z,99816.28
2023-02-09T15:00:02.673Z,99824.03
2023-02-09T15:02:53.785Z,99833.94
2023-02-09T15:05:41.797Z,99826.69
2023-02-09T15:08:34.421Z,99835.06
2023-02-09T15:11:42.834Z,99828.34
2023-02-09T15:14:30.895Z,99831.47
2023-02-09T15:17:23.540Z,99831.06
2023-02-09T15:20:16.350Z,99836.06
2023-02-09T15:23:03.816Z,99845.44
2023-02-09T15:25:51.557Z,99852.13
2023-02-09T15:28:40.873Z,99851.03
2023-02-09T15:31:29.184Z,99856.16
2023-02-09T15:34:17.030Z,99859.47
2023-02-09T15:37:05.861Z,99849.28
2023-02-09T15:40:00.461Z,99856.97
2023-02-09T15:43:05.794Z,99865.53
2023-02-09T15:46:10.869Z,99871.22
2023-02-09T15:48:58.499Z,99864.69
2023-02-09T15:51:46.213Z,99863.41
2023-02-09T15:54:35.365Z,99869.19
2023-02-09T15:57:25.462Z,99869.66
2023-02-09T16:00:21.344Z,99878.22
2023-02-09T16:03:16.945Z,99866.72
2023-02-09T16:06:14.036Z,99873.63
2023-02-09T16:09:03.695Z,99871.69
2023-02-09T16:11:52.604Z,99880.47
2023-02-09T16:14:40.921Z,99892.63
2023-02-09T16:17:28.665Z,99893.38
2023-02-09T16:20:18.301Z,99884.53
2023-02-09T16:23:19.646Z,99883.50
2023-02-09T16:26:09.955Z,99899.16
2023-02-09T16:28:59.086Z,99907.84
2023-02-09T16:31:46.956Z,99904.44
2023-02-09T16:34:34.672Z,99905.25
2023-02-09T16:37:30.283Z,99907.78
2023-02-09T16:40:28.437Z,99910.34
2023-02-09T16:43:16.932Z,99918.03
2023-02-09T16:46:07.041Z,99915.28
2023-02-09T16:48:55.749Z,99919.47
2023-02-09T16:51:43.470Z,99922.78
2023-02-09T16:54:42.595Z,99916.44
2023-02-09T16:57:31.010Z,99917.22
2023-02-09T17:00:19.404Z,99925.72
2023-02-09T17:03:15.628Z,99924.47
2023-02-09T17:06:04.062Z,99925.84
2023-02-09T17:08:53.239Z,99930.75
2023-02-09T17:11:41.015Z,99925.13
2023-02-09T17:14:28.452Z,99929.94
2023-02-09T17:17:21.333Z,99935.59
2023-02-09T17:20:16.796Z,99952.53
2023-02-09T17:23:04.615Z,99958.97
2023-02-09T17:25:55.104Z,99965.44
2023-02-09T17:28:43.491Z,99964.81
2023-02-09T17:31:50.863Z,99965.16
2023-02-09T17:34:40.369Z,99964.69
2023-02-09T17:37:29.036Z,99967.75
2023-02-09T17:40:18.730Z,99969.84
2023-02-09T17:43:06.901Z,99966.75
2023-02-09T17:45:55.107Z,99973.94
2023-02-09T17:48:42.686Z,99967.28
2023-02-09T17:51:35.889Z,99971.00
2023-02-09T17:54:24.696Z,99974.88
2023-02-09T17:57:14.819Z,99975.16
2023-02-09T18:00:03.492Z,99976.28
2023-02-09T18:02:51.752Z,99973.88
2023-02-09T18:05:41.119Z,99968.91
2023-02-09T18:08:29.168Z,99971.78
2023-02-09T18:11:18.270Z,99971.16
2023-02-09T18:14:05.902Z,99980.03
2023-02-09T18:16:55.141Z,99959.31
2023-02-09T18:19:42.655Z,99967.63
2023-02-09T18:22:30.290Z,99987.75
2023-02-09T18:25:24.923Z,99990.41
2023-02-09T18:28:17.037Z,99981.00
2023-02-09T18:31:06.428Z,99995.88
2023-02-09T18:33:54.365Z,99988.25
2023-02-09T18:36:41.878Z,99992.72
2023-02-09T18:39:30.677Z,99992.78
2023-02-09T18:42:18.314Z,99999.06
2023-02-09T18:45:08.822Z,99993.09
2023-02-09T18:47:56.538Z,99994.16
2023-02-09T18:50:44.144Z,100012.53
2023-02-09T18:53:31.858Z,100008.34
2023-02-09T18:56:21.727Z,100016.25
2023-02-09T18:59:09.706Z,100007.75
2023-02-09T19:01:59.761Z,100013.13
2023-02-09T19:04:48.543Z,100019.31
2023-02-09T19:07:37.177Z,100015.97
2023-02-09T19:10:25.380Z,100017.81
2023-02-09T19:13:12.747Z,100022.34
2023-02-09T19:16:00.478Z,100030.25
2023-02-09T19:18:49.561Z,100030.34
2023-02-09T19:21:37.550Z,100033.94
2023-02-09T19:24:25.694Z,100018.50
2023-02-09T19:27:13.814Z,100017.75
2023-02-09T19:30:01.442Z,100022.19
2023-02-09T19:32:48.982Z,100033.56
2023-02-09T19:35:37.859Z,100034.47
2023-02-09T19:38:26.003Z,100030.25
2023-02-09T19:41:13.796Z,100035.63
2023-02-09T19:44:01.625Z,100033.13
2023-02-09T19:46:49.448Z,100035.81
2023-02-09T19:49:38.877Z,100040.22
2023-02-09T19:52:29.725Z,100027.31
2023-02-09T19:55:17.332Z,100039.50
2023-02-09T19:58:04.741Z,100042.09
2023-02-09T20:00:55.076Z,100037.91
2023-02-09T20:03:43.495Z,100035.34
2023-02-09T20:06:33.745Z,100036.28
2023-02-09T20:09:22.898Z,100037.28
2023-02-09T20:12:10.773Z,100041.66
2023-02-09T20:14:58.610Z,100034.78
2023-02-09T20:20:34.700Z,100039.22
2023-02-09T20:23:22.291Z,100035.88
2023-02-09T20:26:18.538Z,100030.75
2023-02-09T20:29:06.690Z,100039.41
2023-02-09T20:31:54.581Z,100041.22
2023-02-09T20:34:42.414Z,100050.78
2023-02-09T20:37:30.082Z,100052.63
2023-02-09T20:40:18.117Z,100057.00
2023-02-09T20:43:39.269Z,100066.56
2023-02-09T20:46:48.472Z,100064.84
2023-02-09T20:49:37.018Z,100085.66
2023-02-09T20:52:24.714Z,100088.38
2023-02-09T20:55:12.558Z,100093.56
2023-02-09T20:58:00.202Z,100085.81
2023-02-09T21:00:49.584Z,100081.56
2023-02-09T21:03:37.732Z,100080.75
2023-02-09T21:06:27.044Z,100096.38
2023-02-09T21:09:16.747Z,100092.09
2023-02-09T21:12:04.572Z,100082.59
2023-02-09T21:14:53.037Z,100088.69
2023-02-09T21:17:47.549Z,100084.38
2023-02-09T21:20:36.105Z,100078.38
2023-02-09T21:23:23.893Z,100076.69
2023-02-09T21:26:16.444Z,100081.03
2023-02-09T21:29:04.329Z,100081.94
2023-02-09T21:31:52.393Z,100084.59
2023-02-09T21:34:41.442Z,100088.13
2023-02-09T21:37:32.037Z,100086.44
2023-02-09T21:40:21.035Z,100083.06
2023-02-09T21:43:09.001Z,100088.22
2023-02-09T21:45:56.741Z,100088.31
2023-02-09T21:48:44.068Z,100091.75
2023-02-09T21:51:32.783Z,100090.94
2023-02-09T21:54:20.619Z,100097.06
2023-02-09T21:57:07.978Z,100104.88
2023-02-09T21:59:55.530Z,100110.09
2023-02-09T22:02:43.142Z,100110.13
2023-02-09T22:05:30.689Z,100111.84
2023-02-09T22:08:19.603Z,100111.03
2023-02-09T22:11:08.278Z,100116.25
2023-02-09T22:13:55.789Z,100115.41
2023-02-09T22:16:43.997Z,100111.16
2023-02-09T22:19:31.582Z,100107.69
2023-02-09T22:22:19.427Z,100115.50
2023-02-09T22:25:09.621Z,100113.78
2023-02-09T22:27:57.267Z,100123.28
2023-02-09T22:30:44.861Z,100127.66
2023-02-09T22:33:32.693Z,100129.38
2023-02-09T22:36:21.854Z,100125.91
2023-02-09T22:39:09.905Z,100131.09
2023-02-09T22:41:59.572Z,100138.88
2023-02-09T22:44:47.593Z,100130.28
2023-02-09T22:47:35.899Z,100141.53
2023-02-09T22:50:23.791Z,100132.91
2023-02-09T22:53:11.549Z,100139.84
2023-02-09T22:55:59.073Z,100149.34
2023-02-09T22:58:48.313Z,100145.94
2023-02-09T23:01:36.106Z,100150.28
2023-02-09T23:04:24.101Z,100157.19
2023-02-09T23:07:11.721Z,100153.75
2023-02-09T23:09:59.472Z,100150.31
2023-02-09T23:12:46.892Z,100154.69
2023-02-09T23:15:35.745Z,100158.13
2023-02-09T23:18:23.418Z,100152.16
2023-02-09T23:21:11.104Z,100156.47
2023-02-09T23:23:59.809Z,100156.47
2023-02-09T23:26:47.402Z,100151.31
2023-02-09T23:29:35.045Z,100157.38
2023-02-09T23:32:24.005Z,100164.31
2023-02-09T23:35:13.505Z,100167.78
2023-02-09T23:38:01.870Z,100167.78
2023-02-09T23:40:49.697Z,100160.88
2023-02-09T23:43:38.131Z,100167.75
2023-02-09T23:46:28.913Z,100169.56
2023-02-09T23:49:18.152Z,100178.22
2023-02-09T23:52:06.189Z,100171.41
2023-02-09T23:54:53.616Z,100167.94
2023-02-09T23:57:40.913Z,100171.44
